Time;durP1;ratioP1;P1;durP2;ratioP2;P2;SDS_P1;SDS_P2;PMS_P1;PMS_P2;Temp;Humidity;BMP_temperature;BMP_pressure;BME280_temperature;BME280_humidity;BME280_pressure;Samples;Min_cycle;Max_cycle;Signal;HPM_P1;HPM_P2
2023/05/24 07:23:12;;;;;;;21.80;8.60;;;;;;;-145.79;64.46;78534.75;5264350;27;20365;-65
2023/05/24 07:25:43;;;;;;;21.33;10.07;;;;;;;-145.79;63.92;78534.75;5280268;28;20033;-66
2023/05/24 07:28:16;;;;;;;17.67;9.10;;;;;;;-145.79;63.56;78530.53;5265462;28;20088;-65
2023/05/24 07:30:48;;;;;;;15.63;8.73;;;;;;;-145.79;63.25;78536.88;5244963;28;20091;-66
2023/05/24 07:33:19;;;;;;;20.00;8.88;;;;;;;-145.79;62.07;78541.13;5251796;28;20040;-66
2023/05/24 07:35:51;;;;;;;17.30;9.13;;;;;;;-145.79;61.56;78539.00;5243370;28;20034;-65
2023/05/24 07:38:22;;;;;;;20.17;8.88;;;;;;;-145.79;62.27;78522.03;5259182;28;20067;-65
2023/05/24 07:40:53;;;;;;;17.83;8.02;;;;;;;-145.79;61.81;78502.97;5248370;28;20034;-65
2023/05/24 07:43:26;;;;;;;22.08;8.65;;;;;;;-145.79;62.01;78513.56;5237234;28;20030;-66
2023/05/24 07:45:57;;;;;;;18.83;7.38;;;;;;;-145.79;60.61;78490.22;5238713;28;20144;-66
2023/05/24 07:48:28;;;;;;;16.08;7.85;;;;;;;-145.79;60.24;78496.59;5258787;28;20017;-66
2023/05/24 07:51:00;;;;;;;14.20;7.40;;;;;;;-145.79;60.30;78494.47;5257759;28;20117;-66
2023/05/24 07:53:32;;;;;;;14.75;7.55;;;;;;;-145.79;58.79;78498.72;5254968;28;20018;-66
2023/05/24 07:56:05;;;;;;;11.23;5.63;;;;;;;-145.79;58.69;78502.97;5258584;28;20033;-66
2023/05/24 07:58:36;;;;;;;14.02;6.10;;;;;;;-145.79;58.30;78513.56;5248034;28;20536;-66
2023/05/24 08:01:07;;;;;;;13.32;6.22;;;;;;;-145.79;58.19;78490.22;5248279;28;20042;-64
2023/05/24 08:03:39;;;;;;;14.50;6.28;;;;;;;-145.79;57.74;78475.41;5244452;28;20388;-64
2023/05/24 08:06:10;;;;;;;21.25;11.60;;;;;;;-145.79;58.44;78449.94;5257224;28;20029;-64
2023/05/24 08:08:42;;;;;;;9.82;5.90;;;;;;;-145.79;57.33;78445.72;5258240;28;20124;-65
2023/05/24 08:11:13;;;;;;;10.00;5.07;;;;;;;-145.79;56.17;78439.34;5257501;28;20029;-64
2023/05/24 08:13:45;;;;;;;9.45;5.03;;;;;;;-145.79;54.56;78420.28;5258302;28;20032;-64
2023/05/24 08:16:17;;;;;;;15.70;6.53;;;;;;;-145.79;55.42;78411.78;5258004;28;20029;-64
2023/05/24 08:18:48;;;;;;;10.52;5.72;;;;;;;-145.79;55.55;78394.81;5239875;28;20018;-66
2023/05/24 08:21:20;;;;;;;11.73;5.43;;;;;;;-145.79;53.99;78379.97;5248174;28;20488;-64
2023/05/24 08:23:51;;;;;;;9.95;5.47;;;;;;;-145.79;53.22;78360.91;5240028;28;20464;-65
2023/05/24 08:26:23;;;;;;;14.50;5.28;;;;;;;-145.79;52.34;78365.16;5237523;28;20079;-64
2023/05/24 08:28:54;;;;;;;10.38;5.10;;;;;;;-145.79;52.46;78369.38;5257583;28;20036;-64
2023/05/24 08:31:26;;;;;;;11.05;4.70;;;;;;;-145.79;51.44;78343.94;5257104;28;20067;-65
2023/05/24 08:33:57;;;;;;;13.57;4.90;;;;;;;-145.79;54.24;78314.25;5233007;28;20021;-65
2023/05/24 08:36:29;;;;;;;123.85;14.50;;;;;;;-145.79;52.37;78318.50;5227433;28;20022;-65
2023/05/24 08:39:00;;;;;;;17.75;6.43;;;;;;;-145.79;50.99;78326.97;5222802;28;20030;-66
2023/05/24 08:41:36;;;;;;;62.80;10.68;;;;;;;-145.79;51.15;78324.84;5229924;28;20041;-66
2023/05/24 08:44:07;;;;;;;13.60;6.07;;;;;;;-145.79;54.18;78293.06;5242836;28;20025;-65
2023/05/24 08:46:39;;;;;;;13.15;4.97;;;;;;;-145.79;52.05;78307.91;5242732;28;20049;-65
2023/05/24 08:49:12;;;;;;;18.65;5.07;;;;;;;-145.79;51.61;78303.66;5242624;28;20038;-66
2023/05/24 08:51:43;;;;;;;13.10;5.28;;;;;;;-145.79;51.75;78314.25;5241684;28;20033;-65
2023/05/24 08:54:15;;;;;;;16.45;5.03;;;;;;;-145.79;49.98;78305.78;5238455;28;20028;-65
2023/05/24 08:56:47;;;;;;;13.40;5.13;;;;;;;-145.79;50.67;78273.97;5222709;28;20025;-70
2023/05/24 08:59:18;;;;;;;11.23;5.10;;;;;;;-145.79;49.15;78250.66;5222994;28;20105;-72
2023/05/24 09:01:53;;;;;;;11.50;4.90;;;;;;;-145.79;49.43;78246.41;5222219;28;20049;-70
2023/05/24 09:04:26;;;;;;;10.10;4.80;;;;;;;-145.79;50.00;78229.47;5238854;28;20461;-69
2023/05/24 09:06:57;;;;;;;14.73;5.75;;;;;;;-145.79;50.34;78210.38;5233572;28;20472;-67
2023/05/24 09:09:31;;;;;;;11.15;5.50;;;;;;;-145.79;49.26;78250.66;5241515;28;20030;-67
2023/05/24 09:12:04;;;;;;;13.45;4.70;;;;;;;-145.79;49.71;78263.38;5233883;28;20030;-66
2023/05/24 09:14:36;;;;;;;10.52;5.30;;;;;;;-145.79;50.53;78267.63;5221860;28;20432;-67
2023/05/24 09:17:07;;;;;;;9.98;4.30;;;;;;;-145.79;51.54;78250.66;5222787;28;20026;-67
2023/05/24 09:19:39;;;;;;;13.35;6.28;;;;;;;-145.79;50.94;78242.19;5222331;28;20105;-65
2023/05/24 09:22:15;;;;;;;13.35;5.07;;;;;;;-145.79;50.86;78199.78;5225062;28;20045;-65
2023/05/24 09:24:47;;;;;;;22.10;14.32;;;;;;;-145.79;48.71;78199.78;5241861;28;20445;-65
2023/05/24 09:27:22;;;;;;;11.40;5.95;;;;;;;-145.79;48.86;78208.25;5235255;28;20022;-65
2023/05/24 09:29:54;;;;;;;11.40;5.03;;;;;;;-145.79;49.54;78178.56;5237237;28;20022;-66
2023/05/24 09:32:27;;;;;;;13.45;5.35;;;;;;;-145.79;48.23;78182.81;5242905;28;20033;-66
2023/05/24 09:34:58;;;;;;;11.95;6.05;;;;;;;-145.79;47.90;78178.56;5242941;28;20069;-65
2023/05/24 09:37:30;;;;;;;14.60;4.88;;;;;;;-145.79;48.07;78225.22;5242223;28;20053;-66
2023/05/24 09:40:01;;;;;;;12.68;5.72;;;;;;;-145.79;50.33;78204.00;5230887;28;20033;-65
2023/05/24 09:42:32;;;;;;;13.57;5.70;;;;;;;-145.79;48.93;78229.47;5221040;28;20022;-66
2023/05/24 09:45:08;;;;;;;9.65;4.65;;;;;;;-145.79;48.16;78216.72;5229821;28;20030;-66
2023/05/24 09:47:41;;;;;;;10.98;4.20;;;;;;;-145.79;47.76;78197.66;5262780;28;20029;-67
2023/05/24 09:50:15;;;;;;;7.43;3.78;;;;;;;-145.79;46.80;78182.81;5254694;28;20075;-66
2023/05/24 09:52:46;;;;;;;10.48;3.90;;;;;;;-145.79;46.20;78148.91;5242169;28;20024;-66
2023/05/24 09:55:19;;;;;;;9.00;4.72;;;;;;;-145.79;46.06;78138.28;5240490;28;20472;-66
2023/05/24 09:58:01;;;;;;;10.57;3.67;;;;;;;-145.79;46.70;78123.44;5241572;28;20026;-66
2023/05/24 10:00:48;;;;;;;10.45;4.55;;;;;;;-145.79;46.00;78155.25;5233551;28;20042;-65
2023/05/24 10:03:20;;;;;;;20.17;12.07;;;;;;;-145.79;44.87;78170.09;5233010;28;20364;-65
2023/05/24 10:05:53;;;;;;;17.17;8.30;;;;;;;-145.79;45.02;78134.06;5241600;28;20042;-65
2023/05/24 10:08:25;;;;;;;9.07;4.40;;;;;;;-145.79;45.67;78119.22;5231017;28;20034;-66
2023/05/24 10:10:56;;;;;;;11.32;4.55;;;;;;;-145.79;45.19;78129.81;5228508;28;20037;-65
2023/05/24 10:13:28;;;;;;;8.65;5.07;;;;;;;-145.79;44.92;78114.97;5234740;28;20033;-65
2023/05/24 10:15:59;;;;;;;10.18;4.15;;;;;;;-145.79;44.54;78106.50;5241410;28;20067;-65
2023/05/24 10:18:33;;;;;;;11.35;3.90;;;;;;;-145.79;44.71;78098.00;5231623;28;20132;-66
2023/05/24 10:21:07;;;;;;;11.70;4.32;;;;;;;-145.79;45.27;78085.28;5229054;28;20046;-65
2023/05/24 10:23:42;;;;;;;10.88;4.57;;;;;;;-145.79;44.85;78081.06;5241778;28;20485;-65
2023/05/24 10:26:14;;;;;;;9.95;4.35;;;;;;;-145.79;45.16;78085.28;5239974;28;20029;-65
2023/05/24 10:28:53;;;;;;;9.57;5.00;;;;;;;-145.79;45.69;78098.00;5235807;28;20026;-65
2023/05/24 10:31:33;;;;;;;12.07;3.97;;;;;;;-145.79;45.71;78106.50;5220826;28;20108;-66
2023/05/24 10:34:06;;;;;;;8.93;4.85;;;;;;;-145.79;45.15;78093.78;5238046;28;20136;-66
2023/05/24 10:36:39;;;;;;;10.90;6.30;;;;;;;-145.79;44.65;78119.22;5234351;28;20079;-65
2023/05/24 10:39:11;;;;;;;12.30;5.75;;;;;;;-145.79;45.51;78081.06;5233423;28;20083;-65
2023/05/24 10:41:42;;;;;;;48.92;39.80;;;;;;;-145.79;43.45;78081.06;5229575;28;20021;-65
2023/05/24 10:44:19;;;;;;;7.55;4.00;;;;;;;-145.79;43.62;78051.38;5241134;28;20345;-65
2023/05/24 10:47:12;;;;;;;10.10;3.58;;;;;;;-145.79;43.65;78038.66;5220609;28;20037;-65
2023/05/24 10:49:53;;;;;;;9.50;4.30;;;;;;;-145.79;42.74;78042.91;5234537;28;20500;-66
2023/05/24 10:52:34;;;;;;;8.85;3.80;;;;;;;-145.79;43.29;78042.91;5244268;28;20028;-66
2023/05/24 10:55:08;;;;;;;10.25;4.65;;;;;;;-145.79;43.75;78045.00;5235702;28;20025;-66
2023/05/24 10:57:39;;;;;;;8.55;3.65;;;;;;;-145.79;43.85;78059.84;5235529;28;20032;-65
2023/05/24 11:00:26;;;;;;;10.90;3.88;;;;;;;-145.79;44.40;78047.13;5227070;28;20021;-66
2023/05/24 11:03:07;;;;;;;8.93;4.13;;;;;;;-145.79;44.67;78055.63;5220440;28;20121;-65
2023/05/24 11:05:45;;;;;;;11.07;4.32;;;;;;;-145.79;44.48;78047.13;5220628;28;20014;-65
2023/05/24 11:08:36;;;;;;;10.48;4.40;;;;;;;-145.79;45.17;78045.00;5223256;28;20029;-65
2023/05/24 11:11:10;;;;;;;8.30;3.80;;;;;;;-145.79;45.59;78019.56;5230594;28;20449;-65
2023/05/24 11:13:42;;;;;;;7.40;4.03;;;;;;;-145.79;43.83;78034.41;5220952;28;20026;-65
2023/05/24 11:16:34;;;;;;;8.27;3.85;;;;;;;-145.79;44.51;78023.81;5235023;28;20033;-65
2023/05/24 11:19:15;;;;;;;8.18;3.75;;;;;;;-145.79;43.85;78030.19;5233936;28;20361;-65
2023/05/24 11:21:48;;;;;;;12.20;4.32;;;;;;;-145.79;44.34;78038.66;5239177;28;20046;-65
2023/05/24 11:24:22;;;;;;;11.02;6.70;;;;;;;-145.79;44.67;78042.91;5230531;28;20022;-65
2023/05/24 11:26:55;;;;;;;10.43;4.57;;;;;;;-145.79;44.01;78055.63;5230413;28;20026;-65
2023/05/24 11:29:28;;;;;;;9.60;4.13;;;;;;;-145.79;43.60;78061.97;5233367;28;20049;-65
2023/05/24 11:32:03;;;;;;;11.55;4.63;;;;;;;-145.79;44.04;78051.38;5238687;28;20021;-65
2023/05/24 11:34:34;;;;;;;8.30;4.10;;;;;;;-145.79;43.88;78045.00;5235143;28;20025;-66
2023/05/24 11:37:06;;;;;;;11.32;3.50;;;;;;;-145.79;43.90;78045.00;5239300;28;20112;-66
2023/05/24 11:39:38;;;;;;;10.45;4.10;;;;;;;-145.79;44.26;78049.25;5238414;28;20025;-65
2023/05/24 11:42:09;;;;;;;12.80;4.00;;;;;;;-145.79;44.07;78032.28;5239351;28;20332;-66
2023/05/24 11:44:40;;;;;;;10.55;4.03;;;;;;;-145.79;44.23;78017.44;5228014;28;20435;-65
2023/05/24 11:47:12;;;;;;;11.63;4.57;;;;;;;-145.79;44.25;78030.19;5240471;28;20384;-66
2023/05/24 11:49:48;;;;;;;9.85;3.63;;;;;;;-145.79;43.60;78015.34;5239487;28;20026;-67
2023/05/24 11:52:20;;;;;;;11.55;3.92;;;;;;;-145.79;43.81;78008.97;5220093;28;20361;-65
2023/05/24 11:54:53;;;;;;;9.20;3.78;;;;;;;-145.79;43.62;77989.91;5220943;28;20034;-65
2023/05/24 11:57:31;;;;;;;9.55;3.53;;;;;;;-145.79;43.75;77981.41;5236512;28;20105;-66
2023/05/24 12:00:05;;;;;;;11.40;3.63;;;;;;;-145.79;43.24;77979.28;5238948;28;20072;-66
2023/05/24 12:02:39;;;;;;;6.75;4.00;;;;;;;-145.79;43.08;77977.19;5236624;28;20045;-66
2023/05/24 12:05:12;;;;;;;11.40;4.70;;;;;;;-145.79;44.14;77962.34;5239993;28;20026;-66
2023/05/24 12:07:47;;;;;;;7.97;4.28;;;;;;;-145.79;43.97;77968.69;5236805;28;20038;-66
2023/05/24 12:10:19;;;;;;;11.63;4.53;;;;;;;-145.79;44.04;77977.19;5243014;28;20021;-66
2023/05/24 12:12:50;;;;;;;8.98;5.60;;;;;;;-145.79;43.94;77972.94;5244231;28;20025;-66
2023/05/24 12:15:21;;;;;;;7.00;4.43;;;;;;;-145.79;44.34;77977.19;5244046;28;20136;-66
2023/05/24 12:17:53;;;;;;;19.10;4.03;;;;;;;-145.79;44.37;77966.56;5231355;28;20428;-66
2023/05/24 12:20:28;;;;;;;10.90;4.30;;;;;;;-145.79;44.37;77964.47;5243361;28;20064;-66
2023/05/24 12:22:59;;;;;;;6.72;3.70;;;;;;;-145.79;44.48;77962.34;5242544;28;20082;-66
2023/05/24 12:25:31;;;;;;;8.23;3.47;;;;;;;-145.79;44.27;77966.56;5243277;28;20492;-66
2023/05/24 12:28:02;;;;;;;12.35;4.40;;;;;;;-145.79;44.46;77964.47;5241562;28;20017;-65
2023/05/24 12:30:36;;;;;;;8.77;5.05;;;;;;;-145.79;44.01;77968.69;5244121;28;20026;-65
2023/05/24 12:33:09;;;;;;;12.32;4.20;;;;;;;-145.79;44.33;77985.66;5240710;28;20025;-67
2023/05/24 12:35:43;;;;;;;7.70;3.92;;;;;;;-145.79;44.51;77975.06;5224204;28;20021;-67
2023/05/24 12:38:23;;;;;;;8.27;4.15;;;;;;;-145.79;44.38;77975.06;5223192;28;20048;-67
2023/05/24 12:40:55;;;;;;;11.30;4.10;;;;;;;-145.79;45.35;77964.47;5233916;28;20029;-67
2023/05/24 12:43:26;;;;;;;8.15;3.70;;;;;;;-145.79;45.19;77960.22;5243898;28;20029;-68
2023/05/24 12:45:59;;;;;;;9.30;3.85;;;;;;;-145.79;45.15;77968.69;5241630;28;20041;-67
2023/05/24 12:48:30;;;;;;;10.55;4.57;;;;;;;-145.79;44.87;77970.81;5231966;28;20018;-68
2023/05/24 12:51:02;;;;;;;18.02;12.05;;;;;;;-145.79;44.98;77977.19;5222156;28;20466;-68
2023/05/24 12:53:34;;;;;;;10.63;5.03;;;;;;;-145.79;44.89;77979.28;5236310;28;20044;-68
2023/05/24 12:56:05;;;;;;;12.00;4.57;;;;;;;-145.79;45.54;77964.47;5224879;28;20064;-68
2023/05/24 12:58:37;;;;;;;7.38;4.38;;;;;;;-145.79;44.96;77962.34;5220613;28;20552;-68
2023/05/24 13:01:08;;;;;;;11.40;4.07;;;;;;;-145.79;45.17;77958.09;5222324;28;20105;-68
2023/05/24 13:03:39;;;;;;;9.60;4.00;;;;;;;-145.79;45.71;77928.41;5231913;28;20194;-68
2023/05/24 13:06:11;;;;;;;14.77;4.80;;;;;;;-145.79;44.92;77915.69;5241258;28;20404;-68
2023/05/24 13:08:42;;;;;;;8.13;4.03;;;;;;;-145.79;44.26;77926.28;5239401;28;20112;-68
2023/05/24 13:11:16;;;;;;;9.85;4.13;;;;;;;-145.79;44.23;77909.34;5222324;28;20026;-67
2023/05/24 13:13:47;;;;;;;8.13;4.72;;;;;;;-145.79;43.79;77924.19;5227151;28;20052;-68
2023/05/24 13:16:19;;;;;;;10.75;4.30;;;;;;;-145.79;43.45;77928.41;5221736;28;20121;-68
2023/05/24 13:18:51;;;;;;;7.95;3.60;;;;;;;-145.79;43.37;77936.91;5221873;28;20040;-68
2023/05/24 13:21:22;;;;;;;10.95;4.25;;;;;;;-145.79;43.78;77936.91;5221240;28;20493;-68
2023/05/24 13:23:54;;;;;;;8.57;3.70;;;;;;;-145.79;43.76;77945.38;5222512;28;20022;-68
2023/05/24 13:26:25;;;;;;;9.82;3.60;;;;;;;-145.79;44.39;77941.13;5227063;28;20026;-67
2023/05/24 13:28:57;;;;;;;11.88;4.40;;;;;;;-145.79;44.33;77941.13;5241422;28;20052;-67
2023/05/24 13:31:28;;;;;;;11.82;4.20;;;;;;;-145.79;44.15;77932.66;5239737;28;20032;-68
2023/05/24 13:34:00;;;;;;;7.72;4.72;;;;;;;-145.79;44.47;77932.66;5242868;28;20025;-68
2023/05/24 13:36:31;;;;;;;10.20;4.50;;;;;;;-145.79;44.67;77943.25;5241984;28;20099;-68
2023/05/24 13:39:03;;;;;;;10.02;3.97;;;;;;;-145.79;44.64;77945.38;5242694;28;20364;-69
2023/05/24 13:41:35;;;;;;;11.25;6.72;;;;;;;-145.79;44.81;77941.13;5241110;28;20022;-68
2023/05/24 13:44:07;;;;;;;9.20;4.13;;;;;;;-145.79;43.55;77945.38;5233036;28;20034;-68
2023/05/24 13:46:39;;;;;;;9.65;3.70;;;;;;;-145.79;43.67;77939.00;5221666;28;20034;-68
2023/05/24 13:49:10;;;;;;;8.68;3.90;;;;;;;-145.79;43.97;77928.41;5221387;28;20030;-69
2023/05/24 13:51:45;;;;;;;10.70;3.97;;;;;;;-145.79;43.45;77936.91;5228598;28;20022;-68
2023/05/24 13:54:17;;;;;;;12.50;4.55;;;;;;;-145.79;43.55;77911.47;5242683;28;20053;-68
2023/05/24 13:56:48;;;;;;;10.13;5.13;;;;;;;-145.79;43.20;77898.75;5241614;28;20052;-69
2023/05/24 13:59:20;;;;;;;10.40;4.50;;;;;;;-145.79;43.85;77881.78;5239973;28;20477;-69
2023/05/24 14:01:51;;;;;;;9.50;4.32;;;;;;;-145.79;43.31;77890.25;5241651;28;20022;-68
2023/05/24 14:04:22;;;;;;;10.63;3.80;;;;;;;-145.79;43.82;77890.25;5231201;28;20026;-67
2023/05/24 14:06:53;;;;;;;9.38;4.20;;;;;;;-145.79;44.04;77875.41;5262877;28;20440;-68
2023/05/24 14:09:25;;;;;;;12.05;6.72;;;;;;;-145.79;42.67;77886.00;5252414;28;20025;-67
2023/05/24 14:11:56;;;;;;;9.90;4.20;;;;;;;-145.79;42.67;77828.78;5241066;28;20021;-66
2023/05/24 14:14:28;;;;;;;11.80;4.80;;;;;;;-145.79;43.20;77813.94;5240459;28;20033;-68
2023/05/24 14:16:59;;;;;;;9.52;4.20;;;;;;;-145.79;42.81;77809.69;5233303;28;20028;-69
2023/05/24 14:19:32;;;;;;;16.30;5.70;;;;;;;-145.79;42.03;77782.16;5221317;28;20398;-68
2023/05/24 14:22:03;;;;;;;9.65;3.97;;;;;;;-145.79;40.84;77752.47;5236283;28;20045;-67
2023/05/24 14:24:35;;;;;;;31.88;28.50;;;;;;;-145.79;40.79;77754.59;5240664;28;20480;-67
2023/05/24 14:27:06;;;;;;;8.95;5.00;;;;;;;-145.79;40.70;77754.59;5237885;28;20128;-68
2023/05/24 14:29:37;;;;;;;8.68;4.60;;;;;;;-145.79;41.05;77746.09;5238820;28;20025;-68
2023/05/24 14:32:10;;;;;;;9.80;4.35;;;;;;;-145.79;40.92;77705.84;5260878;28;20021;-68
2023/05/24 14:34:41;;;;;;;10.70;3.90;;;;;;;-145.79;40.05;77712.19;5241429;28;20022;-67
2023/05/24 14:37:12;;;;;;;8.55;4.20;;;;;;;-145.79;40.58;77739.75;5241704;28;20507;-67
2023/05/24 14:39:43;;;;;;;7.63;3.60;;;;;;;-145.79;40.39;77718.56;5240786;28;20104;-66
2023/05/24 14:42:15;;;;;;;7.97;3.67;;;;;;;-145.79;39.93;77680.38;5241308;28;20033;-66
2023/05/24 14:44:46;;;;;;;29.80;23.67;;;;;;;-145.79;39.30;77657.06;5230449;28;20034;-67
2023/05/24 14:47:17;;;;;;;7.28;3.60;;;;;;;-145.79;38.95;77669.78;5220812;28;20049;-67
2023/05/24 14:49:49;;;;;;;7.32;3.00;;;;;;;-145.79;39.19;77659.19;5221572;28;20033;-66
2023/05/24 14:52:20;;;;;;;7.20;3.30;;;;;;;-145.79;39.19;77682.50;5229915;28;20060;-66
2023/05/24 14:54:52;;;;;;;7.75;4.05;;;;;;;-145.79;39.11;77682.50;5241366;28;20075;-66
2023/05/24 14:57:23;;;;;;;7.95;4.25;;;;;;;-145.79;39.06;77695.22;5241132;28;20025;-66
2023/05/24 14:59:55;;;;;;;8.63;3.80;;;;;;;-145.79;38.96;77697.34;5240220;28;20029;-67
2023/05/24 15:02:26;;;;;;;9.00;3.35;;;;;;;-145.79;39.31;77712.19;5239424;28;20140;-67
2023/05/24 15:04:57;;;;;;;8.27;3.42;;;;;;;-145.79;39.33;77727.03;5236324;28;20095;-67
2023/05/24 15:07:29;;;;;;;9.10;3.65;;;;;;;-145.79;39.77;77716.44;5230778;28;20022;-67
2023/05/24 15:10:00;;;;;;;6.63;3.53;;;;;;;-145.79;39.98;77733.38;5239793;28;20027;-67
2023/05/24 15:12:31;;;;;;;10.18;4.65;;;;;;;-145.79;40.78;77733.38;5241114;28;20056;-67
2023/05/24 15:15:05;;;;;;;9.77;4.35;;;;;;;-145.79;40.62;77756.72;5228459;28;20040;-66
2023/05/24 15:17:36;;;;;;;5.82;3.63;;;;;;;-145.79;40.29;77771.53;5244500;28;20071;-67
2023/05/24 15:20:08;;;;;;;8.52;3.70;;;;;;;-145.79;40.47;77780.03;5238366;28;20477;-67
2023/05/24 15:22:39;;;;;;;6.93;3.60;;;;;;;-145.79;40.38;77811.81;5229010;28;20049;-67
2023/05/24 15:25:10;;;;;;;8.38;3.92;;;;;;;-145.79;40.83;77818.19;5237894;28;20030;-66
2023/05/24 15:27:43;;;;;;;7.68;3.92;;;;;;;-145.79;40.87;77818.19;5228048;28;20041;-67
2023/05/24 15:30:16;;;;;;;7.25;3.05;;;;;;;-145.79;41.40;77824.53;5240800;28;20017;-66
2023/05/24 15:32:47;;;;;;;8.43;3.58;;;;;;;-145.79;41.51;77816.06;5220558;28;20037;-67
2023/05/24 15:35:18;;;;;;;10.85;3.72;;;;;;;-145.79;40.99;77837.25;5219316;28;20109;-67
2023/05/24 15:37:49;;;;;;;16.85;5.32;;;;;;;-145.79;42.19;77835.13;5218900;28;20536;-66
2023/05/24 15:40:22;;;;;;;11.05;3.70;;;;;;;-145.79;42.36;77835.13;5219504;28;20022;-67
2023/05/24 15:42:53;;;;;;;11.57;3.42;;;;;;;-145.79;42.42;77862.69;5218099;28;20034;-67
2023/05/24 15:45:25;;;;;;;9.25;3.95;;;;;;;-145.79;42.86;77845.75;5222349;28;20026;-68
2023/05/24 15:47:57;;;;;;;10.25;4.47;;;;;;;-145.79;43.54;77858.47;5221810;28;20101;-67
2023/05/24 15:50:28;;;;;;;11.07;4.45;;;;;;;-145.79;43.27;77858.47;5222746;28;20040;-67
2023/05/24 15:52:59;;;;;;;10.50;4.47;;;;;;;-145.79;43.17;77873.31;5229440;28;20034;-66
2023/05/24 15:55:32;;;;;;;8.57;3.65;;;;;;;-145.79;43.21;77877.53;5223356;28;20026;-68
2023/05/24 15:58:03;;;;;;;9.38;3.92;;;;;;;-145.79;43.59;77873.31;5230164;28;20022;-69
2023/05/24 16:00:35;;;;;;;10.98;4.43;;;;;;;-145.79;43.43;77873.31;5232056;28;20056;-68
2023/05/24 16:03:06;;;;;;;8.07;3.88;;;;;;;-145.79;43.73;77860.56;5243719;28;20372;-68
2023/05/24 16:05:38;;;;;;;10.85;3.60;;;;;;;-145.79;43.48;77873.31;5244524;28;20021;-68
2023/05/24 16:08:09;;;;;;;8.88;4.03;;;;;;;-145.79;43.51;77869.06;5244471;28;20025;-68
2023/05/24 16:10:41;;;;;;;10.32;3.90;;;;;;;-145.79;43.28;77886.00;5243636;28;20026;-67
2023/05/24 16:13:13;;;;;;;15.40;5.10;;;;;;;-145.79;43.43;77879.66;5244369;28;20040;-68
2023/05/24 16:15:50;;;;;;;7.88;3.90;;;;;;;-145.79;43.77;77879.66;5242784;28;20026;-69
2023/05/24 16:18:21;;;;;;;10.38;4.25;;;;;;;-145.79;43.87;77877.53;5223530;28;20017;-68
2023/05/24 16:20:52;;;;;;;8.30;3.83;;;;;;;-145.79;43.81;77869.06;5223462;28;20022;-68
2023/05/24 16:23:24;;;;;;;8.20;4.65;;;;;;;-145.79;43.65;77877.53;5222692;28;20441;-67
2023/05/24 16:25:55;;;;;;;27.58;24.63;;;;;;;-145.79;44.18;77881.78;5223593;28;20037;-67
2023/05/24 16:28:29;;;;;;;9.88;4.30;;;;;;;-145.79;43.98;77898.75;5223524;28;20037;-68
2023/05/24 16:31:02;;;;;;;11.68;4.95;;;;;;;-145.79;44.20;77892.38;5223057;28;20030;-68
2023/05/24 16:33:33;;;;;;;9.75;4.05;;;;;;;-145.79;44.30;77892.38;5229361;28;20072;-67
2023/05/24 16:36:05;;;;;;;9.80;4.90;;;;;;;-145.79;44.39;77900.84;5244218;28;20025;-68
2023/05/24 16:38:39;;;;;;;10.85;3.85;;;;;;;-145.79;44.68;77894.50;5243072;28;20025;-68
2023/05/24 16:41:11;;;;;;;8.45;3.83;;;;;;;-145.79;44.23;77907.22;5244108;28;20029;-68
2023/05/24 16:43:42;;;;;;;6.55;4.00;;;;;;;-145.79;44.38;77883.91;5243598;28;20025;-69
2023/05/24 16:46:13;;;;;;;11.85;5.47;;;;;;;-145.79;44.14;77898.75;5243222;28;20071;-68
2023/05/24 16:48:44;;;;;;;9.48;3.80;;;;;;;-145.79;44.29;77890.25;5231077;28;20026;-68
2023/05/24 16:51:16;;;;;;;9.13;4.97;;;;;;;-145.79;44.52;77886.00;5234297;28;20068;-69
2023/05/24 16:53:47;;;;;;;9.13;4.57;;;;;;;-145.79;44.70;77894.50;5242219;28;20041;-69
